Time;durP1;ratioP1;P1;durP2;ratioP2;P2;SDS_P1;SDS_P2;PMS_P1;PMS_P2;Temp;Humidity;BMP_temperature;BMP_pressure;BME280_temperature;BME280_humidity;BME280_pressure;Samples;Min_cycle;Max_cycle;Signal;HPM_P1;HPM_P2
2021/05/13 00:01:13;;;;;;;7.45;1.77;;;16.40;99.90;;;;;;6338993;22;20005;-79
2021/05/13 00:03:39;;;;;;;12.90;2.10;;;16.40;99.90;;;;;;6338994;22;20510;-77
2021/05/13 00:06:05;;;;;;;6.60;1.77;;;16.40;99.90;;;;;;6338637;22;20011;-77
2021/05/13 00:08:30;;;;;;;6.82;2.03;;;16.30;99.90;;;;;;6311486;22;20060;-82
2021/05/13 00:11:05;;;;;;;14.40;1.42;;;16.30;99.90;;;;;;6338908;22;19999;-80
2021/05/13 00:13:40;;;;;;;8.05;1.42;;;16.20;99.90;;;;;;6338712;22;20014;-78
2021/05/13 00:16:07;;;;;;;5.13;1.60;;;16.20;99.70;;;;;;6338806;22;19998;-81
2021/05/13 00:18:34;;;;;;;6.50;2.15;;;16.10;99.40;;;;;;6338712;22;20462;-82
2021/05/13 00:21:00;;;;;;;7.47;2.25;;;16.10;99.30;;;;;;6338785;22;19995;-80
2021/05/13 00:23:26;;;;;;;6.90;1.63;;;16.10;99.20;;;;;;6339068;22;20026;-78
2021/05/13 00:25:52;;;;;;;7.32;1.42;;;16.10;99.10;;;;;;6349777;22;20073;-81
2021/05/13 00:28:23;;;;;;;6.68;1.83;;;16.00;98.80;;;;;;6338724;22;20057;-81
2021/05/13 00:30:49;;;;;;;7.72;1.20;;;16.00;98.70;;;;;;6338697;22;20333;-79
2021/05/13 00:33:15;;;;;;;11.43;2.30;;;15.90;98.40;;;;;;6338616;22;20076;-80
2021/05/13 00:35:41;;;;;;;5.82;1.80;;;16.00;98.30;;;;;;6338653;22;20053;-80
2021/05/13 00:38:07;;;;;;;10.43;2.10;;;15.90;98.00;;;;;;6311088;22;20003;-82
2021/05/13 00:40:34;;;;;;;12.40;1.88;;;15.90;97.90;;;;;;6338846;22;20056;-77
2021/05/13 00:43:01;;;;;;;6.97;1.80;;;15.90;97.80;;;;;;6338624;22;20059;-80
2021/05/13 00:45:28;;;;;;;8.85;2.10;;;15.90;97.80;;;;;;6338483;22;20006;-82
2021/05/13 00:50:20;;;;;;;9.88;1.85;;;15.90;97.50;;;;;;6338454;22;19998;-79
2021/05/13 00:52:47;;;;;;;7.47;1.85;;;15.90;97.40;;;;;;6338596;22;20087;-82
2021/05/13 00:55:15;;;;;;;8.50;2.28;;;15.90;97.30;;;;;;6338471;22;20080;-81
2021/05/13 00:57:44;;;;;;;4.22;1.50;;;15.90;97.40;;;;;;6338609;22;20431;-77
2021/05/13 01:02:57;;;;;;;4.53;1.58;;;15.80;97.10;;;;;;6338519;22;19999;-82
2021/05/13 01:05:24;;;;;;;7.75;2.22;;;15.80;97.30;;;;;;6338015;22;20425;-82
2021/05/13 01:07:50;;;;;;;11.32;2.50;;;15.80;97.20;;;;;;6338323;22;20067;-77
2021/05/13 01:10:16;;;;;;;6.13;1.38;;;15.80;97.30;;;;;;6338371;22;20066;-78
2021/05/13 01:12:44;;;;;;;4.40;1.10;;;15.80;97.10;;;;;;6310745;22;20337;-80
2021/05/13 01:15:26;;;;;;;4.97;1.50;;;15.80;96.90;;;;;;6338300;22;20066;-81
2021/05/13 01:20:27;;;;;;;14.13;2.05;;;15.80;96.90;;;;;;6338472;22;20003;-81
2021/05/13 01:22:57;;;;;;;7.18;1.80;;;15.80;96.80;;;;;;6338243;22;20307;-79
2021/05/13 01:25:24;;;;;;;6.97;2.03;;;15.70;96.80;;;;;;6310681;22;20089;-82
2021/05/13 01:27:55;;;;;;;8.90;1.83;;;15.80;96.90;;;;;;6338085;22;20007;-78
2021/05/13 01:30:21;;;;;;;5.50;1.52;;;15.90;96.80;;;;;;6338293;22;20030;-82
2021/05/13 01:32:47;;;;;;;7.20;1.63;;;16.00;96.70;;;;;;6338229;22;20018;-80
2021/05/13 01:35:13;;;;;;;9.17;1.93;;;16.10;96.50;;;;;;6338390;22;20006;-82
2021/05/13 01:37:38;;;;;;;6.50;1.40;;;16.20;96.30;;;;;;6354476;22;20245;-78
2021/05/13 01:40:05;;;;;;;3.70;1.40;;;16.30;96.10;;;;;;6338281;22;20567;-82
2021/05/13 01:42:31;;;;;;;3.25;1.20;;;16.10;96.30;;;;;;6338257;22;20307;-82
2021/05/13 01:44:57;;;;;;;5.10;1.35;;;16.00;96.60;;;;;;6338088;22;20429;-81
2021/05/13 01:47:23;;;;;;;4.35;1.50;;;15.90;96.60;;;;;;6337850;22;20006;-81
2021/05/13 01:49:50;;;;;;;9.40;1.55;;;15.80;97.00;;;;;;6338042;22;20322;-81
2021/05/13 01:52:16;;;;;;;9.05;1.85;;;15.90;97.10;;;;;;6338164;22;20000;-80
2021/05/13 01:54:42;;;;;;;10.30;1.98;;;15.90;97.20;;;;;;6310611;22;20011;-81
2021/05/13 01:57:09;;;;;;;9.48;1.40;;;16.10;97.00;;;;;;6338028;22;20006;-78
2021/05/13 01:59:35;;;;;;;3.45;0.90;;;16.20;96.80;;;;;;6337943;22;20014;-82
2021/05/13 02:02:02;;;;;;;6.40;1.73;;;16.30;96.60;;;;;;6338019;22;20001;-81
2021/05/13 02:04:29;;;;;;;9.57;1.60;;;16.30;96.50;;;;;;6338839;22;20007;-79
2021/05/13 02:06:56;;;;;;;5.63;1.77;;;16.30;96.50;;;;;;6337843;22;20006;-82
2021/05/13 02:09:22;;;;;;;5.15;1.85;;;16.20;96.70;;;;;;6337752;22;20461;-77
2021/05/13 02:11:48;;;;;;;6.15;1.88;;;16.20;96.60;;;;;;6338040;22;20070;-80
2021/05/13 02:14:15;;;;;;;7.87;1.53;;;16.30;96.70;;;;;;6338108;22;20027;-79
2021/05/13 02:16:41;;;;;;;4.30;1.60;;;16.30;96.50;;;;;;6338016;22;20018;-79
2021/05/13 02:19:07;;;;;;;10.57;1.67;;;16.30;96.40;;;;;;6337911;22;19999;-79
2021/05/13 02:21:33;;;;;;;5.32;2.20;;;16.30;96.30;;;;;;6338427;22;20221;-82
2021/05/13 02:23:58;;;;;;;6.50;2.07;;;16.40;96.20;;;;;;6339906;22;20006;-82
2021/05/13 02:26:24;;;;;;;8.97;1.80;;;16.40;95.80;;;;;;6340204;22;19999;-83
2021/05/13 02:28:50;;;;;;;5.65;1.40;;;16.40;95.80;;;;;;6339717;22;20011;-82
2021/05/13 02:31:16;;;;;;;6.90;1.83;;;16.30;95.80;;;;;;6339858;22;20321;-82
2021/05/13 02:33:42;;;;;;;5.67;1.63;;;16.30;95.70;;;;;;6339836;22;20237;-81
2021/05/13 02:36:08;;;;;;;6.63;1.60;;;16.30;95.70;;;;;;6339734;22;20225;-77
2021/05/13 02:38:35;;;;;;;10.02;1.90;;;16.30;95.50;;;;;;6340120;22;20448;-79
2021/05/13 02:41:01;;;;;;;7.03;1.15;;;16.40;95.60;;;;;;6339941;22;19998;-77
2021/05/13 02:43:27;;;;;;;7.68;1.92;;;16.40;95.50;;;;;;6339593;22;20414;-77
2021/05/13 02:45:53;;;;;;;8.50;2.47;;;16.40;95.40;;;;;;6339799;22;20329;-82
2021/05/13 02:48:19;;;;;;;6.32;1.70;;;16.50;95.20;;;;;;6345661;22;20007;-79
2021/05/13 02:50:45;;;;;;;4.57;1.63;;;16.40;95.00;;;;;;6345083;22;20013;-82
2021/05/13 02:53:13;;;;;;;3.00;1.45;;;16.40;94.90;;;;;;6339538;22;20009;-81
2021/05/13 02:55:40;;;;;;;7.47;1.85;;;16.20;95.10;;;;;;6339700;22;20075;-81
2021/05/13 02:58:07;;;;;;;5.82;1.70;;;16.20;95.10;;;;;;6339599;22;20006;-79
2021/05/13 03:00:50;;;;;;;7.20;2.08;;;16.00;95.40;;;;;;6339661;22;20342;-81
2021/05/13 03:03:16;;;;;;;10.27;1.42;;;15.90;95.70;;;;;;6339530;22;20026;-81
2021/05/13 03:05:41;;;;;;;13.77;2.43;;;15.70;95.90;;;;;;6339554;22;20003;-81
2021/05/13 03:08:09;;;;;;;5.83;1.60;;;15.70;96.00;;;;;;6339298;22;20018;-81
2021/05/13 03:10:43;;;;;;;6.68;1.50;;;15.70;96.00;;;;;;6339393;22;20221;-83
2021/05/13 03:13:11;;;;;;;7.72;1.42;;;15.80;95.70;;;;;;6339296;22;20003;-77
2021/05/13 03:15:37;;;;;;;6.10;1.88;;;15.90;95.70;;;;;;6339449;22;20025;-81
2021/05/13 03:18:03;;;;;;;5.82;1.40;;;15.90;95.70;;;;;;6339313;22;20073;-82
2021/05/13 03:20:38;;;;;;;6.65;1.20;;;16.00;95.60;;;;;;6339397;22;20026;-78
2021/05/13 03:23:07;;;;;;;7.93;1.10;;;16.00;95.40;;;;;;6339357;22;20077;-81
2021/05/13 03:25:35;;;;;;;5.93;1.52;;;16.10;95.40;;;;;;6339222;22;20021;-81
2021/05/13 03:28:08;;;;;;;10.05;2.42;;;16.00;95.40;;;;;;6339059;22;20011;-80
2021/05/13 03:30:45;;;;;;;14.70;2.28;;;15.80;95.70;;;;;;6339411;22;20422;-77
2021/05/13 03:33:13;;;;;;;7.32;1.50;;;15.50;96.00;;;;;;6338951;22;20007;-81
2021/05/13 03:35:39;;;;;;;4.38;1.63;;;15.40;96.50;;;;;;6339063;22;20030;-81
2021/05/13 03:38:06;;;;;;;7.22;1.98;;;15.40;96.40;;;;;;6339028;22;20052;-80
2021/05/13 03:40:32;;;;;;;6.45;1.50;;;15.40;96.60;;;;;;6339353;22;20364;-80
2021/05/13 03:42:59;;;;;;;4.75;1.70;;;15.40;96.40;;;;;;6339239;22;20078;-76
2021/05/13 03:45:26;;;;;;;5.05;1.60;;;15.50;96.30;;;;;;6339319;22;20002;-77
2021/05/13 03:47:52;;;;;;;7.07;1.73;;;15.50;96.20;;;;;;6338813;22;20011;-78
2021/05/13 03:50:18;;;;;;;5.28;1.77;;;15.60;96.10;;;;;;6339092;22;20322;-81
2021/05/13 03:52:44;;;;;;;3.28;1.63;;;15.80;95.80;;;;;;6339029;22;20041;-80
2021/05/13 03:55:11;;;;;;;12.88;1.63;;;15.80;95.60;;;;;;6338905;22;20376;-81
2021/05/13 03:57:38;;;;;;;10.25;2.03;;;16.00;95.50;;;;;;6339168;22;20030;-81
2021/05/13 04:00:08;;;;;;;7.32;1.05;;;16.00;95.30;;;;;;6342613;22;20027;-77
2021/05/13 04:02:34;;;;;;;4.55;1.33;;;16.10;95.20;;;;;;6342782;22;20009;-76
2021/05/13 04:05:01;;;;;;;2.25;0.93;;;16.00;95.00;;;;;;6338850;22;20003;-76
2021/05/13 04:07:33;;;;;;;11.50;1.38;;;16.00;95.10;;;;;;6338985;22;20006;-76
2021/05/13 04:10:02;;;;;;;7.65;1.08;;;16.00;95.30;;;;;;6339106;22;20318;-76
2021/05/13 04:12:28;;;;;;;8.00;2.35;;;16.00;95.30;;;;;;6339815;22;20064;-82
2021/05/13 04:14:58;;;;;;;8.20;2.03;;;16.10;95.30;;;;;;6339309;22;20003;-82
2021/05/13 04:17:24;;;;;;;5.15;1.13;;;16.20;95.20;;;;;;6338793;22;20006;-82
2021/05/13 04:19:50;;;;;;;5.05;1.38;;;16.30;95.20;;;;;;6338714;22;19998;-76
2021/05/13 04:22:16;;;;;;;4.10;0.90;;;16.50;95.20;;;;;;6338938;22;20077;-79
2021/05/13 04:24:43;;;;;;;9.02;1.90;;;16.60;95.20;;;;;;6338718;22;20255;-80
2021/05/13 04:27:09;;;;;;;5.38;1.35;;;16.60;95.10;;;;;;6338686;22;20006;-76
2021/05/13 04:29:35;;;;;;;4.60;1.37;;;16.70;95.00;;;;;;6338505;22;20011;-78
2021/05/13 04:32:02;;;;;;;7.50;1.35;;;16.80;94.90;;;;;;6338616;22;20213;-81
2021/05/13 04:34:28;;;;;;;3.35;1.10;;;16.70;95.10;;;;;;6338967;22;20007;-79
2021/05/13 04:36:53;;;;;;;7.70;2.40;;;16.80;95.10;;;;;;6311566;22;19995;-78
2021/05/13 04:39:19;;;;;;;8.48;2.17;;;16.80;95.20;;;;;;6338790;22;20233;-82
2021/05/13 04:41:45;;;;;;;6.60;1.63;;;16.90;95.20;;;;;;6339136;22;20025;-79
2021/05/13 04:44:11;;;;;;;20.37;2.90;;;16.90;95.10;;;;;;6338064;22;20003;-81
2021/05/13 04:46:38;;;;;;;9.30;1.70;;;17.00;95.00;;;;;;6338574;22;20225;-79
2021/05/13 04:51:35;;;;;;;8.70;2.60;;;17.10;94.70;;;;;;6338620;22;19998;-79
2021/05/13 04:54:01;;;;;;;5.00;2.05;;;17.10;94.60;;;;;;6338562;22;20333;-80
2021/05/13 04:56:28;;;;;;;5.85;1.70;;;17.10;94.60;;;;;;6338956;22;20097;-74
2021/05/13 04:58:54;;;;;;;2.75;1.30;;;17.10;94.50;;;;;;6338407;22;20006;-77
2021/05/13 05:01:21;;;;;;;8.25;1.88;;;17.10;94.60;;;;;;6338384;22;20501;-79
2021/05/13 05:03:47;;;;;;;6.22;2.03;;;17.00;94.70;;;;;;6338383;22;20002;-78
2021/05/13 05:06:15;;;;;;;6.80;2.28;;;16.90;94.60;;;;;;6338280;22;20010;-78
2021/05/13 05:08:41;;;;;;;9.82;1.90;;;17.00;94.40;;;;;;6338195;22;20014;-78
2021/05/13 05:11:07;;;;;;;5.25;1.20;;;17.10;94.10;;;;;;6340166;22;19995;-74
2021/05/13 05:13:34;;;;;;;4.18;1.00;;;17.10;94.20;;;;;;6346285;22;20006;-78
2021/05/13 05:16:00;;;;;;;8.13;1.50;;;17.20;94.10;;;;;;6338324;22;19999;-77
2021/05/13 05:18:26;;;;;;;3.92;1.58;;;17.10;94.00;;;;;;6310539;22;20081;-78
2021/05/13 05:20:52;;;;;;;7.63;1.70;;;17.10;94.20;;;;;;6338303;22;20061;-77
2021/05/13 05:23:20;;;;;;;4.00;1.17;;;17.10;94.40;;;;;;6338228;22;20051;-78
2021/05/13 05:25:46;;;;;;;4.47;1.60;;;17.20;94.30;;;;;;6338323;22;19998;-75
2021/05/13 05:28:12;;;;;;;5.57;1.30;;;17.30;94.00;;;;;;6338134;22;20010;-79
2021/05/13 05:30:39;;;;;;;10.45;2.15;;;17.30;94.30;;;;;;6338186;22;20468;-80
2021/05/13 05:33:08;;;;;;;3.05;1.13;;;17.30;93.80;;;;;;6338335;22;20307;-78
2021/05/13 05:35:34;;;;;;;5.60;1.50;;;17.30;93.80;;;;;;6338201;22;20073;-79
2021/05/13 05:38:02;;;;;;;6.63;1.40;;;17.20;93.90;;;;;;6338013;22;20056;-79
2021/05/13 05:40:28;;;;;;;9.18;1.40;;;17.30;93.80;;;;;;6338113;22;20026;-79
2021/05/13 05:42:54;;;;;;;5.53;1.08;;;17.40;93.80;;;;;;6338120;22;20520;-79
2021/05/13 05:45:22;;;;;;;5.90;1.10;;;17.40;93.60;;;;;;6310604;22;20338;-78
2021/05/13 05:47:50;;;;;;;5.28;1.00;;;17.40;93.50;;;;;;6338069;22;20429;-79
2021/05/13 05:50:17;;;;;;;7.20;1.42;;;17.60;93.40;;;;;;6338006;22;20021;-79
2021/05/13 05:52:43;;;;;;;8.45;1.35;;;17.70;93.00;;;;;;6310305;22;19998;-75
2021/05/13 05:55:11;;;;;;;5.82;1.67;;;17.80;92.80;;;;;;6337919;22;20354;-76
2021/05/13 05:57:37;;;;;;;9.57;1.50;;;17.70;93.00;;;;;;6337890;22;20070;-79
2021/05/13 06:00:08;;;;;;;7.00;1.10;;;17.80;93.00;;;;;;6338069;22;20001;-76
2021/05/13 06:02:35;;;;;;;2.70;0.70;;;17.90;92.50;;;;;;6337998;22;20030;-75
2021/05/13 06:05:02;;;;;;;4.97;1.17;;;17.90;92.50;;;;;;6338012;22;20325;-76
2021/05/13 06:07:28;;;;;;;6.05;1.42;;;18.00;92.50;;;;;;6338149;22;20606;-75
2021/05/13 06:09:55;;;;;;;2.13;0.70;;;18.10;92.20;;;;;;6337941;22;20075;-77
2021/05/13 06:12:22;;;;;;;5.55;1.73;;;18.20;92.10;;;;;;6337884;22;20382;-75
2021/05/13 06:14:48;;;;;;;7.45;1.25;;;18.30;92.00;;;;;;6338263;22;19998;-78
2021/05/13 06:17:14;;;;;;;7.65;1.70;;;18.20;91.30;;;;;;6337950;22;20010;-79
2021/05/13 06:19:40;;;;;;;4.28;0.90;;;18.20;91.70;;;;;;6337891;22;19994;-79
2021/05/13 06:22:06;;;;;;;4.25;1.20;;;18.30;92.10;;;;;;6338046;22;19999;-80
2021/05/13 06:24:32;;;;;;;7.43;1.30;;;18.30;91.20;;;;;;6321492;22;20011;-78
2021/05/13 06:27:00;;;;;;;6.32;1.45;;;18.30;91.40;;;;;;6337921;22;20251;-80
2021/05/13 06:29:28;;;;;;;6.30;1.15;;;18.30;91.80;;;;;;6337708;22;20333;-79
2021/05/13 06:31:54;;;;;;;7.93;1.88;;;18.40;92.00;;;;;;6338102;22;20315;-80
2021/05/13 06:34:20;;;;;;;5.88;1.42;;;18.50;91.00;;;;;;6337997;22;20010;-79
2021/05/13 06:36:46;;;;;;;3.65;1.33;;;18.50;91.50;;;;;;6338003;22;19999;-79
2021/05/13 06:39:12;;;;;;;5.05;0.93;;;18.60;91.40;;;;;;6338141;22;20014;-80
2021/05/13 06:41:41;;;;;;;3.55;1.20;;;18.70;91.00;;;;;;6337743;22;20128;-80
2021/05/13 06:44:07;;;;;;;5.32;1.30;;;18.60;91.00;;;;;;6337771;22;20086;-79
2021/05/13 06:46:33;;;;;;;4.28;0.90;;;18.60;90.80;;;;;;6337598;22;20002;-79
2021/05/13 06:48:59;;;;;;;7.57;1.27;;;18.50;90.70;;;;;;6337372;22;20391;-75
2021/05/13 06:51:25;;;;;;;7.03;1.95;;;18.50;90.50;;;;;;6337493;22;20329;-80
2021/05/13 06:53:51;;;;;;;2.10;1.13;;;18.60;90.70;;;;;;6337696;22;20006;-76
2021/05/13 06:56:18;;;;;;;7.82;1.83;;;18.70;90.60;;;;;;6337677;22;20229;-80
2021/05/13 06:58:45;;;;;;;3.78;0.90;;;18.80;90.40;;;;;;6337854;22;20108;-79
2021/05/13 07:01:11;;;;;;;3.13;1.10;;;19.00;90.20;;;;;;6337464;22;19998;-79
2021/05/13 07:03:37;;;;;;;3.85;1.05;;;18.90;89.20;;;;;;6309895;22;20013;-81
2021/05/13 07:06:04;;;;;;;6.40;0.98;;;18.90;90.20;;;;;;6337386;22;20007;-79
2021/05/13 07:08:29;;;;;;;6.60;1.70;;;19.00;89.00;;;;;;6338889;22;20014;-81
2021/05/13 07:10:56;;;;;;;3.67;1.10;;;19.10;89.50;;;;;;6339599;22;20307;-79
2021/05/13 07:13:22;;;;;;;4.88;1.80;;;19.00;90.10;;;;;;6339247;22;20237;-77
2021/05/13 07:15:48;;;;;;;6.87;1.53;;;19.10;90.00;;;;;;6339429;22;19991;-79
2021/05/13 07:18:15;;;;;;;3.17;1.40;;;19.20;90.10;;;;;;6339549;22;20321;-77
2021/05/13 07:20:42;;;;;;;7.28;1.77;;;19.30;90.60;;;;;;6339967;22;20009;-76
2021/05/13 07:23:08;;;;;;;5.32;1.60;;;19.40;89.90;;;;;;6339137;22;19999;-78
2021/05/13 07:25:35;;;;;;;6.78;1.40;;;19.50;90.00;;;;;;6339557;22;20006;-76
2021/05/13 07:28:00;;;;;;;8.50;1.83;;;19.60;90.00;;;;;;6339397;22;20075;-77
2021/05/13 07:30:26;;;;;;;8.55;1.75;;;19.60;90.30;;;;;;6339153;22;20485;-76
2021/05/13 07:32:53;;;;;;;16.63;2.20;;;19.60;90.70;;;;;;6339468;22;20006;-77
2021/05/13 07:35:19;;;;;;;4.75;1.83;;;19.50;90.80;;;;;;6344805;22;20007;-77
2021/05/13 07:37:46;;;;;;;4.60;1.15;;;19.60;91.10;;;;;;6344315;22;20002;-76
2021/05/13 07:40:13;;;;;;;6.65;3.13;;;19.60;90.50;;;;;;6339492;22;20065;-78
2021/05/13 07:42:39;;;;;;;6.75;1.90;;;19.60;91.00;;;;;;6339400;22;20073;-80
2021/05/13 07:45:06;;;;;;;7.32;2.83;;;19.60;90.50;;;;;;6311305;22;19999;-77
2021/05/13 07:47:39;;;;;;;3.97;1.23;;;19.60;90.50;;;;;;6338817;22;20022;-80
2021/05/13 07:50:34;;;;;;;6.10;2.03;;;19.70;90.60;;;;;;6338985;22;20052;-80
2021/05/13 07:53:01;;;;;;;5.63;1.35;;;19.80;90.90;;;;;;6306499;22;19999;-77
2021/05/13 07:55:27;;;;;;;4.60;1.48;;;19.90;90.30;;;;;;6338867;22;20459;-78
2021/05/13 07:57:53;;;;;;;3.45;1.13;;;19.90;89.40;;;;;;6338914;22;20022;-81
2021/05/13 08:00:19;;;;;;;1.80;1.20;;;19.80;87.40;;;;;;6339100;22;20082;-78
2021/05/13 08:02:45;;;;;;;3.03;1.05;;;20.00;86.40;;;;;;6338898;22;20229;-77
2021/05/13 08:05:11;;;;;;;6.13;1.70;;;20.10;87.00;;;;;;6338645;22;20299;-80
2021/05/13 08:07:37;;;;;;;3.33;0.80;;;20.30;85.80;;;;;;6338764;22;20366;-76
2021/05/13 08:10:05;;;;;;;2.17;0.65;;;20.40;84.00;;;;;;6338897;22;20010;-79
2021/05/13 08:12:31;;;;;;;3.85;1.10;;;20.30;81.40;;;;;;6338940;22;20003;-76
2021/05/13 08:14:57;;;;;;;3.37;0.60;;;20.40;82.60;;;;;;6339057;22;20005;-79
2021/05/13 08:17:23;;;;;;;1.73;0.68;;;20.40;79.40;;;;;;6339048;22;20277;-80
2021/05/13 08:19:49;;;;;;;0.93;0.40;;;20.40;79.70;;;;;;6338231;22;20333;-80
2021/05/13 08:22:15;;;;;;;2.58;0.52;;;20.40;76.60;;;;;;6339077;22;20240;-81
2021/05/13 08:24:41;;;;;;;2.13;0.60;;;20.50;77.70;;;;;;6338772;22;20422;-80
2021/05/13 08:27:07;;;;;;;3.57;0.57;;;20.60;76.00;;;;;;6338646;22;20229;-82
2021/05/13 08:29:33;;;;;;;4.13;0.73;;;20.60;76.40;;;;;;6338692;22;20026;-78
2021/05/13 08:31:59;;;;;;;0.85;0.55;;;20.70;77.30;;;;;;6338714;22;20003;-82
2021/05/13 08:34:26;;;;;;;3.20;1.00;;;21.00;76.10;;;;;;6338619;22;19999;-76
2021/05/13 08:36:52;;;;;;;5.47;1.77;;;21.00;79.70;;;;;;6338634;22;19999;-82
2021/05/13 08:39:17;;;;;;;2.50;0.63;;;21.20;82.80;;;;;;6338492;22;19995;-77
2021/05/13 08:41:43;;;;;;;1.10;1.00;;;21.00;81.80;;;;;;6338582;22;20094;-81
2021/05/13 08:44:10;;;;;;;1.80;0.87;;;20.90;82.40;;;;;;6339022;22;20687;-77
2021/05/13 08:46:37;;;;;;;7.85;1.85;;;21.00;80.80;;;;;;6346797;22;20540;-76
2021/05/13 08:49:04;;;;;;;3.25;0.90;;;21.20;82.60;;;;;;6347909;22;20038;-78
2021/05/13 08:51:31;;;;;;;9.93;1.55;;;21.20;82.80;;;;;;6338614;22;20014;-76
2021/05/13 08:53:58;;;;;;;5.38;1.75;;;21.30;84.30;;;;;;6338570;22;20048;-77
2021/05/13 08:56:28;;;;;;;6.80;1.45;;;21.10;83.90;;;;;;6338491;22;20003;-76
2021/05/13 08:58:58;;;;;;;6.20;1.00;;;20.90;84.20;;;;;;6338566;22;20002;-78
2021/05/13 09:01:24;;;;;;;4.85;1.10;;;20.90;83.60;;;;;;6338449;22;20073;-79
2021/05/13 09:03:55;;;;;;;3.72;0.90;;;20.90;83.30;;;;;;6338500;22;20007;-81
2021/05/13 09:06:28;;;;;;;3.65;0.80;;;20.90;82.50;;;;;;6338306;22;20010;-80
2021/05/13 09:08:54;;;;;;;;;;;20.80;81.60;;;;;;6338908;22;20011;-81
2021/05/13 09:11:21;;;;;;;2.58;0.68;;;20.90;81.30;;;;;;6338575;22;19902;-81
2021/05/13 09:14:02;;;;;;;7.97;2.13;;;21.00;81.90;;;;;;6338284;22;20433;-81
2021/05/13 09:16:34;;;;;;;6.72;1.48;;;21.20;82.60;;;;;;6310535;22;20075;-81
2021/05/13 09:19:18;;;;;;;2.55;0.75;;;21.50;81.20;;;;;;6310825;22;20073;-79
2021/05/13 09:21:51;;;;;;;4.15;1.23;;;21.80;79.20;;;;;;6338220;22;20003;-79
2021/05/13 09:24:56;;;;;;;6.05;1.30;;;21.60;80.10;;;;;;6338293;22;20437;-77
2021/05/13 09:27:44;;;;;;;2.97;0.85;;;21.80;80.60;;;;;;6338364;22;20329;-82
2021/05/13 09:30:23;;;;;;;3.40;0.80;;;21.80;79.80;;;;;;6337924;22;20015;-81
2021/05/13 09:32:55;;;;;;;7.93;1.10;;;21.90;78.50;;;;;;6338412;22;19999;-81
2021/05/13 09:35:23;;;;;;;2.50;0.77;;;22.20;78.20;;;;;;6338433;22;20439;-81
2021/05/13 09:37:51;;;;;;;3.78;0.68;;;22.00;76.80;;;;;;6338105;22;20080;-80
2021/05/13 09:40:41;;;;;;;1.85;0.68;;;21.80;78.10;;;;;;6338035;22;20003;-80
2021/05/13 09:43:20;;;;;;;3.72;1.10;;;21.70;78.70;;;;;;6338219;22;20034;-81
2021/05/13 09:45:51;;;;;;;2.83;0.50;;;21.50;79.60;;;;;;6338213;22;20320;-81
2021/05/13 09:48:41;;;;;;;3.40;1.20;;;21.40;79.20;;;;;;6337963;22;20007;-81
2021/05/13 09:51:25;;;;;;;9.63;0.95;;;21.30;79.90;;;;;;6338277;22;20456;-81
2021/05/13 09:54:08;;;;;;;5.10;0.90;;;21.20;80.70;;;;;;6337949;22;20033;-80
2021/05/13 09:56:36;;;;;;;3.45;1.35;;;21.30;80.10;;;;;;6338901;22;20025;-81
2021/05/13 09:59:24;;;;;;;4.40;0.70;;;21.20;82.10;;;;;;6344050;22;20005;-81
2021/05/13 10:01:52;;;;;;;3.75;1.20;;;21.10;82.20;;;;;;6339331;22;20014;-78
2021/05/13 10:04:18;;;;;;;3.08;1.17;;;21.20;82.40;;;;;;6338388;22;20009;-80
2021/05/13 10:06:44;;;;;;;3.80;1.30;;;21.30;82.50;;;;;;6338022;22;20445;-81
2021/05/13 10:09:14;;;;;;;4.80;1.30;;;21.30;82.00;;;;;;6337909;22;20014;-81
2021/05/13 10:11:47;;;;;;;3.55;1.08;;;21.30;82.10;;;;;;6338063;22;20003;-82
2021/05/13 10:14:14;;;;;;;2.15;0.65;;;21.20;81.70;;;;;;6337977;22;20014;-80
2021/05/13 10:16:41;;;;;;;5.85;0.77;;;21.20;80.60;;;;;;6337985;22;20080;-80
2021/05/13 10:19:15;;;;;;;4.88;1.17;;;21.30;80.90;;;;;;6338016;22;20455;-79
2021/05/13 10:21:42;;;;;;;4.47;1.10;;;21.50;80.90;;;;;;6337866;22;20002;-81
2021/05/13 10:24:14;;;;;;;2.45;0.70;;;21.80;81.40;;;;;;6337787;22;20325;-82
2021/05/13 10:26:40;;;;;;;3.90;1.10;;;22.10;79.10;;;;;;6337795;22;20006;-80
2021/05/13 10:32:19;;;;;;;4.90;1.05;;;22.60;76.20;;;;;;6338122;22;20306;-79
2021/05/13 10:34:57;;;;;;;4.47;0.80;;;22.90;76.80;;;;;;6338157;22;20003;-81
2021/05/13 10:37:39;;;;;;;2.10;0.80;;;23.60;75.80;;;;;;6337699;22;20002;-82
2021/05/13 10:40:08;;;;;;;4.07;0.70;;;23.50;73.30;;;;;;6338005;22;20026;-76
2021/05/13 10:42:36;;;;;;;5.28;0.82;;;23.70;73.10;;;;;;6338376;22;19999;-76
2021/05/13 10:45:24;;;;;;;3.90;1.15;;;23.50;73.70;;;;;;6339954;22;20007;-81
2021/05/13 10:48:08;;;;;;;4.75;1.30;;;23.40;74.00;;;;;;6339360;22;20003;-81
2021/05/13 10:50:48;;;;;;;4.35;0.90;;;23.70;74.60;;;;;;6339737;22;20089;-79
2021/05/13 10:53:35;;;;;;;2.70;0.88;;;24.10;73.80;;;;;;6339518;22;20010;-80
2021/05/13 10:56:20;;;;;;;17.92;3.47;;;23.90;72.00;;;;;;6339581;22;20517;-76
2021/05/13 10:58:53;;;;;;;3.70;1.27;;;23.50;70.60;;;;;;6339568;22;20066;-78
2021/05/13 11:01:33;;;;;;;2.97;0.98;;;22.90;73.80;;;;;;6311823;22;20477;-80
2021/05/13 11:04:20;;;;;;;2.33;0.70;;;22.80;73.90;;;;;;6339419;22;20003;-81
2021/05/13 11:06:53;;;;;;;6.55;1.50;;;22.70;75.60;;;;;;6339143;22;20011;-80
2021/05/13 11:09:46;;;;;;;1.40;1.30;;;22.50;74.70;;;;;;6313728;22;20014;-82
2021/05/13 11:12:14;;;;;;;2.92;0.60;;;22.50;75.00;;;;;;6344438;22;20430;-81
2021/05/13 11:15:02;;;;;;;1.55;0.82;;;22.40;74.90;;;;;;6312003;22;20002;-77
2021/05/13 11:17:49;;;;;;;5.50;0.73;;;22.50;74.60;;;;;;6339388;22;20003;-82
2021/05/13 11:20:48;;;;;;;3.28;1.23;;;22.40;74.20;;;;;;6339554;22;20017;-81
2021/05/13 11:23:17;;;;;;;3.72;1.10;;;22.50;74.10;;;;;;6306157;22;20022;-80
2021/05/13 11:25:43;;;;;;;4.85;1.02;;;22.80;73.70;;;;;;6339274;22;20006;-82
2021/05/13 11:28:45;;;;;;;8.13;1.27;;;23.20;72.10;;;;;;6339093;22;20329;-76
2021/05/13 11:31:13;;;;;;;2.08;1.15;;;23.40;72.20;;;;;;6312291;22;20007;-82
2021/05/13 11:33:59;;;;;;;4.70;1.05;;;23.80;72.10;;;;;;6339239;22;20078;-78
2021/05/13 11:36:38;;;;;;;4.70;1.25;;;24.00;71.10;;;;;;6339318;22;20038;-80
2021/05/13 11:39:11;;;;;;;2.38;1.30;;;24.10;71.50;;;;;;6339119;22;20002;-76
2021/05/13 11:41:37;;;;;;;4.35;0.93;;;24.40;71.20;;;;;;6339126;22;20003;-80
2021/05/13 11:44:05;;;;;;;2.45;1.27;;;24.70;69.80;;;;;;6339049;22;20022;-79
2021/05/13 11:46:31;;;;;;;4.15;1.30;;;24.80;69.70;;;;;;6339181;22;20006;-79
2021/05/13 11:48:57;;;;;;;2.75;1.02;;;25.10;68.10;;;;;;6339230;22;20011;-80
2021/05/13 11:51:25;;;;;;;3.20;1.55;;;25.10;68.40;;;;;;6338977;22;20021;-80
2021/05/13 11:53:56;;;;;;;4.35;1.13;;;24.90;68.80;;;;;;6338937;22;20325;-78
2021/05/13 11:56:23;;;;;;;3.42;0.90;;;24.90;69.40;;;;;;6338974;22;20488;-80
2021/05/13 11:58:56;;;;;;;27.45;1.52;;;24.70;69.50;;;;;;6339037;22;20445;-82
2021/05/13 12:01:32;;;;;;;4.57;1.45;;;24.40;70.00;;;;;;6339234;22;20510;-80
2021/05/13 12:04:01;;;;;;;5.88;1.75;;;24.30;70.00;;;;;;6339489;22;20010;-82
2021/05/13 12:06:28;;;;;;;7.30;0.98;;;24.60;69.90;;;;;;6339172;22;20042;-83
2021/05/13 12:08:59;;;;;;;2.55;1.25;;;24.70;69.30;;;;;;6338947;22;20014;-82
2021/05/13 12:11:27;;;;;;;5.45;1.10;;;24.60;69.20;;;;;;6339135;22;20455;-82
2021/05/13 12:13:57;;;;;;;3.10;1.33;;;24.40;69.60;;;;;;6339105;22;20026;-81
2021/05/13 12:16:28;;;;;;;2.97;1.30;;;24.20;70.10;;;;;;6338974;22;20396;-81
2021/05/13 12:19:05;;;;;;;6.97;2.03;;;24.40;69.70;;;;;;6339052;22;20009;-81
2021/05/13 12:21:35;;;;;;;6.78;1.25;;;24.60;69.50;;;;;;6342182;22;19998;-79
2021/05/13 12:24:01;;;;;;;1.77;1.10;;;24.90;68.50;;;;;;6344353;22;19999;-81
2021/05/13 12:26:31;;;;;;;2.80;1.08;;;25.00;67.90;;;;;;6311427;22;20006;-78
2021/05/13 12:28:58;;;;;;;3.42;0.90;;;25.10;67.60;;;;;;6339047;22;20015;-81
2021/05/13 12:31:29;;;;;;;3.53;1.23;;;25.20;68.20;;;;;;6339511;22;20003;-78
2021/05/13 12:33:57;;;;;;;3.22;0.80;;;25.30;68.30;;;;;;6339529;22;20074;-82
2021/05/13 12:36:23;;;;;;;4.25;1.15;;;25.00;67.80;;;;;;6339180;22;20009;-82
2021/05/13 12:38:49;;;;;;;2.75;1.08;;;25.00;68.40;;;;;;6339577;22;20082;-80
2021/05/13 12:41:24;;;;;;;3.15;0.60;;;24.90;68.30;;;;;;6339415;22;20411;-81
2021/05/13 12:43:51;;;;;;;2.15;0.85;;;24.90;68.70;;;;;;6339646;22;20002;-79
2021/05/13 12:46:22;;;;;;;2.13;1.17;;;24.30;68.70;;;;;;6339102;22;20007;-81
2021/05/13 12:48:50;;;;;;;2.22;0.90;;;23.30;70.70;;;;;;6339053;22;20046;-80
2021/05/13 12:51:21;;;;;;;2.60;1.17;;;23.30;70.40;;;;;;6311852;22;20003;-82
2021/05/13 12:53:53;;;;;;;5.50;1.35;;;23.20;71.20;;;;;;6338994;22;20334;-82
2021/05/13 12:56:27;;;;;;;4.60;1.23;;;23.10;70.00;;;;;;6339097;22;20162;-80
2021/05/13 12:59:06;;;;;;;5.35;1.83;;;23.30;70.60;;;;;;6338909;22;20037;-82
2021/05/13 13:01:32;;;;;;;6.63;2.47;;;24.00;70.70;;;;;;6311077;22;20002;-82
2021/05/13 13:03:58;;;;;;;5.20;2.28;;;24.50;68.50;;;;;;6338577;22;20003;-82
2021/05/13 13:06:24;;;;;;;3.50;1.50;;;25.00;67.20;;;;;;6338077;22;20056;-82
2021/05/13 13:08:52;;;;;;;2.75;1.15;;;25.30;67.80;;;;;;6310976;22;20019;-82